Observation data for Guthrie on 12/08/2019      Previous  Date       Current Mesonet Observations  Soil Data  Daily Summary Page  Observations in Plain Language
KPFS 080600Z 18006KT 07/02 A2999 RMK A01 T00730019  RH  070%=      5-min Rain = 0
KPFS 080605Z 19006KT 07/02 A2999 RMK A01 T00650017  RH  073%=      5-min Rain = 0
KPFS 080610Z 19006KT 06/02 A2998 RMK A01 T00630017  RH  074%=      5-min Rain = 0
KPFS 080615Z 19006KT 07/02 A2998 RMK A01 T00650019  RH  074%=      5-min Rain = 0
KPFS 080620Z 19006KT 07/02 A2998 RMK A01 T00700021  RH  072%=      5-min Rain = 0
KPFS 080625Z 18005KT 07/02 A2998 RMK A01 T00730021  RH  071%=      5-min Rain = 0
KPFS 080630Z 18005KT 08/02 A2998 RMK A01 T00750022  RH  070%=      5-min Rain = 0
KPFS 080635Z 18006KT 08/02 A2998 RMK A01 T00750021  RH  070%=      5-min Rain = 0
KPFS 080640Z 18005KT 07/02 A2998 RMK A01 T00720020  RH  071%=      5-min Rain = 0
KPFS 080645Z 18006KT 07/02 A2998 RMK A01 T00700020  RH  072%=      5-min Rain = 0
KPFS 080650Z 18006KT 07/02 A2997 RMK A01 T00720021  RH  071%=      5-min Rain = 0
KPFS 080655Z 19007KT 07/02 A2997 RMK A01 T00710022  RH  072%=      5-min Rain = 0
KPFS 080700Z 20007KT 07/02 A2997 RMK A01 T00720023  RH  072%=      5-min Rain = 0
KPFS 080705Z 20007KT 07/02 A2996 RMK A01 T00730023  RH  072%=      5-min Rain = 0
KPFS 080710Z 20010KT 08/03 A2996 RMK A01 T00760025  RH  072%=      5-min Rain = 0
KPFS 080715Z 19009KT 08/03 A2995 RMK A01 T00800026  RH  070%=      5-min Rain = 0
KPFS 080720Z 19010KT 08/03 A2995 RMK A01 T00810026  RH  070%=      5-min Rain = 0
KPFS 080725Z 19011KT 08/03 A2995 RMK A01 T00830027  RH  069%=      5-min Rain = 0
KPFS 080730Z 19010KT 09/03 A2995 RMK A01 T00850028  RH  069%=      5-min Rain = 0
KPFS 080735Z 19010KT 08/03 A2994 RMK A01 T00840028  RH  069%=      5-min Rain = 0
KPFS 080740Z 19010KT 08/03 A2994 RMK A01 T00840028  RH  069%=      5-min Rain = 0
KPFS 080745Z 19009KT 08/03 A2994 RMK A01 T00830027  RH  069%=      5-min Rain = 0
KPFS 080750Z 19010KT 08/03 A2994 RMK A01 T00820028  RH  070%=      5-min Rain = 0
KPFS 080755Z 19011KT 08/03 A2994 RMK A01 T00830028  RH  069%=      5-min Rain = 0
KPFS 080800Z 19011KT 09/03 A2993 RMK A01 T00870028  RH  068%=      5-min Rain = 0
KPFS 080805Z 19012KT 09/03 A2993 RMK A01 T00900029  RH  067%=      5-min Rain = 0
KPFS 080810Z 20012KT 09/03 A2993 RMK A01 T00910029  RH  066%=      5-min Rain = 0
KPFS 080815Z 20012KT 09/03 A2993 RMK A01 T00930029  RH  065%=      5-min Rain = 0
KPFS 080820Z 20012KT 09/03 A2993 RMK A01 T00940029  RH  065%=      5-min Rain = 0
KPFS 080825Z 20011KT 09/03 A2993 RMK A01 T00930029  RH  065%=      5-min Rain = 0
KPFS 080830Z 20011KT 09/03 A2992 RMK A01 T00920029  RH  066%=      5-min Rain = 0
KPFS 080835Z 20012KT 09/03 A2992 RMK A01 T00930029  RH  066%=      5-min Rain = 0
KPFS 080840Z 20011KT 09/03 A2992 RMK A01 T00920029  RH  066%=      5-min Rain = 0
KPFS 080845Z 21010KT 09/03 A2992 RMK A01 T00920030  RH  066%=      5-min Rain = 0
KPFS 080850Z 21010KT 09/03 A2992 RMK A01 T00920030  RH  066%=      5-min Rain = 0
KPFS 080855Z 21010KT 09/03 A2992 RMK A01 T00920030  RH  066%=      5-min Rain = 0
KPFS 080900Z 20011KT 09/03 A2992 RMK A01 T00910030  RH  067%=      5-min Rain = 0
KPFS 080905Z 21012KT 09/03 A2992 RMK A01 T00930031  RH  066%=      5-min Rain = 0
KPFS 080910Z 21012KT 09/03 A2993 RMK A01 T00940030  RH  066%=      5-min Rain = 0
KPFS 080915Z 21011KT 09/03 A2992 RMK A01 T00940030  RH  066%=      5-min Rain = 0
KPFS 080920Z 21010KT 09/03 A2992 RMK A01 T00930031  RH  066%=      5-min Rain = 0
KPFS 080925Z 21010KT 09/03 A2992 RMK A01 T00940031  RH  066%=      5-min Rain = 0
KPFS 080930Z 21009KT 09/03 A2992 RMK A01 T00920031  RH  067%=      5-min Rain = 0
KPFS 080935Z 21010KT 09/03 A2991 RMK A01 T00920031  RH  067%=      5-min Rain = 0
KPFS 080940Z 22010KT 09/03 A2991 RMK A01 T00940032  RH  066%=      5-min Rain = 0
KPFS 080945Z 22013KT 10/03 A299 RMK A01 T00980032  RH  065%=      5-min Rain = 0
KPFS 080950Z 22013KT 10/03 A299 RMK A01 T01000033  RH  064%=      5-min Rain = 0
KPFS 080955Z 22014G20KT 10/03 A299 RMK A01 T01020033  RH  063%=      5-min Rain = 0
KPFS 081000Z 23015G20KT 10/03 A299 RMK A01 T01040033  RH  062%=      5-min Rain = 0
KPFS 081005Z 23015KT 11/03 A299 RMK A01 T01050033  RH  062%=      5-min Rain = 0
KPFS 081010Z 23016KT 11/03 A299 RMK A01 T01060033  RH  062%=      5-min Rain = 0
KPFS 081015Z 23016G21KT 11/03 A299 RMK A01 T01070032  RH  061%=      5-min Rain = 0
KPFS 081020Z 22015G20KT 11/03 A299 RMK A01 T01070032  RH  061%=      5-min Rain = 0
KPFS 081025Z 22016G22KT 11/03 A2989 RMK A01 T01080032  RH  060%=      5-min Rain = 0
KPFS 081030Z 22014KT 11/03 A2989 RMK A01 T01070032  RH  061%=      5-min Rain = 0
KPFS 081035Z 22015G20KT 11/03 A2989 RMK A01 T01070032  RH  061%=      5-min Rain = 0
KPFS 081040Z 23014KT 11/03 A2989 RMK A01 T01080032  RH  060%=      5-min Rain = 0
KPFS 081045Z 23014KT 11/03 A299 RMK A01 T01090032  RH  060%=      5-min Rain = 0
KPFS 081050Z 23015G20KT 11/03 A299 RMK A01 T01090032  RH  060%=      5-min Rain = 0
KPFS 081055Z 23015G20KT 11/03 A299 RMK A01 T01100032  RH  059%=      5-min Rain = 0
KPFS 081100Z 22014KT 11/03 A2989 RMK A01 T01090032  RH  060%=      5-min Rain = 0
KPFS 081105Z 22013KT 11/03 A2989 RMK A01 T01090032  RH  060%=      5-min Rain = 0
KPFS 081110Z 22015KT 11/03 A2989 RMK A01 T01100032  RH  059%=      5-min Rain = 0
KPFS 081115Z 22014KT 11/03 A2988 RMK A01 T01120032  RH  059%=      5-min Rain = 0
KPFS 081120Z 21014KT 11/03 A2988 RMK A01 T01140032  RH  058%=      5-min Rain = 0
KPFS 081125Z 21015G20KT 12/03 A2988 RMK A01 T01150031  RH  057%=      5-min Rain = 0
KPFS 081130Z 21014KT 12/03 A2988 RMK A01 T01150032  RH  057%=      5-min Rain = 0
KPFS 081135Z 21015KT 12/03 A2987 RMK A01 T01150032  RH  057%=      5-min Rain = 0
KPFS 081140Z 21013KT 12/03 A2987 RMK A01 T01150031  RH  057%=      5-min Rain = 0
KPFS 081145Z 22011KT 11/03 A2987 RMK A01 T01130032  RH  058%=      5-min Rain = 0
KPFS 081150Z 21011KT 11/03 A2987 RMK A01 T01120031  RH  059%=      5-min Rain = 0
KPFS 081155Z 22012KT 11/03 A2988 RMK A01 T01110032  RH  059%=      5-min Rain = 0
KPFS 081200Z 21012G17KT 11/03 A2988 RMK A01 T01110032  RH  059%=      5-min Rain = 0
KPFS 081205Z 21012KT 11/03 A2987 RMK A01 T01110032  RH  059%=      5-min Rain = 0
KPFS 081210Z 21013KT 11/03 A2987 RMK A01 T01110031  RH  059%=      5-min Rain = 0
KPFS 081215Z 22013KT 11/03 A2988 RMK A01 T01110031  RH  059%=      5-min Rain = 0
KPFS 081220Z 22014KT 11/03 A2988 RMK A01 T01110031  RH  059%=      5-min Rain = 0
KPFS 081225Z 21013KT 11/03 A2987 RMK A01 T01110031  RH  059%=      5-min Rain = 0
KPFS 081230Z 21014KT 11/03 A2987 RMK A01 T01110031  RH  059%=      5-min Rain = 0
KPFS 081235Z 21014KT 11/03 A2987 RMK A01 T01120032  RH  059%=      5-min Rain = 0
KPFS 081240Z 21014KT 11/03 A2988 RMK A01 T01120031  RH  059%=      5-min Rain = 0
KPFS 081245Z 21012KT 11/03 A2987 RMK A01 T01100031  RH  059%=      5-min Rain = 0
KPFS 081250Z 21013KT 11/03 A2988 RMK A01 T01090031  RH  059%=      5-min Rain = 0
KPFS 081255Z 21012KT 11/03 A2988 RMK A01 T01090031  RH  060%=      5-min Rain = 0
KPFS 081300Z 21011KT 11/03 A2988 RMK A01 T01080031  RH  060%=      5-min Rain = 0
KPFS 081305Z 21010KT 11/03 A2988 RMK A01 T01070031  RH  060%=      5-min Rain = 0
KPFS 081310Z 22010KT 11/03 A2988 RMK A01 T01060031  RH  061%=      5-min Rain = 0
KPFS 081315Z 22010G15KT 11/03 A2988 RMK A01 T01070031  RH  061%=      5-min Rain = 0
KPFS 081320Z 22010KT 11/03 A2988 RMK A01 T01070031  RH  060%=      5-min Rain = 0
KPFS 081325Z 22011KT 11/03 A2988 RMK A01 T01080031  RH  060%=      5-min Rain = 0
KPFS 081330Z 21009KT 11/03 A2988 RMK A01 T01090031  RH  060%=      5-min Rain = 0
KPFS 081335Z 21011KT 11/03 A2987 RMK A01 T01100031  RH  059%=      5-min Rain = 0
KPFS 081340Z 21011KT 11/03 A2987 RMK A01 T01110031  RH  059%=      5-min Rain = 0
KPFS 081345Z 21010KT 11/03 A2988 RMK A01 T01120031  RH  059%=      5-min Rain = 0
KPFS 081350Z 21010KT 11/03 A2988 RMK A01 T01130031  RH  058%=      5-min Rain = 0
KPFS 081355Z 21009KT 12/03 A2988 RMK A01 T01150031  RH  058%=      5-min Rain = 0
KPFS 081400Z 21008KT 12/03 A2988 RMK A01 T01160031  RH  057%=      5-min Rain = 0
KPFS 081405Z 20007KT 12/03 A2988 RMK A01 T01160031  RH  057%=      5-min Rain = 0
KPFS 081410Z 21007KT 12/03 A2987 RMK A01 T01180031  RH  056%=      5-min Rain = 0
KPFS 081415Z 20005KT 12/03 A2987 RMK A01 T01180032  RH  056%=      5-min Rain = 0
KPFS 081420Z 19005KT 12/03 A2987 RMK A01 T01190032  RH  056%=      5-min Rain = 0
KPFS 081425Z 18006KT 12/03 A2987 RMK A01 T01200032  RH  056%=      5-min Rain = 0
KPFS 081430Z 19005KT 12/03 A2987 RMK A01 T01220032  RH  055%=      5-min Rain = 0
KPFS 081435Z 20005KT 12/03 A2987 RMK A01 T01240033  RH  055%=      5-min Rain = 0
KPFS 081440Z 20004KT 13/03 A2987 RMK A01 T01250033  RH  055%=      5-min Rain = 0
KPFS 081445Z 20004KT 13/03 A2987 RMK A01 T01260033  RH  054%=      5-min Rain = 0
KPFS 081450Z 18003KT 13/03 A2986 RMK A01 T01270034  RH  054%=      5-min Rain = 0
KPFS 081455Z 18003KT 13/03 A2986 RMK A01 T01290034  RH  053%=      5-min Rain = 0
KPFS 081500Z 19005KT 13/03 A2987 RMK A01 T01300034  RH  053%=      5-min Rain = 0
KPFS 081505Z 19005KT 13/03 A2987 RMK A01 T01310034  RH  053%=      5-min Rain = 0
KPFS 081510Z 21005KT 13/03 A2987 RMK A01 T01310034  RH  053%=      5-min Rain = 0
KPFS 081515Z 21006KT 13/03 A2987 RMK A01 T01320034  RH  053%=      5-min Rain = 0
KPFS 081520Z 21007KT 13/04 A2987 RMK A01 T01330035  RH  052%=      5-min Rain = 0
KPFS 081525Z 21007KT 13/04 A2987 RMK A01 T01340035  RH  052%=      5-min Rain = 0
KPFS 081530Z 21007KT 14/04 A2987 RMK A01 T01350036  RH  052%=      5-min Rain = 0
KPFS 081535Z 21008KT 14/04 A2987 RMK A01 T01350035  RH  052%=      5-min Rain = 0
KPFS 081540Z 21008KT 14/04 A2987 RMK A01 T01360036  RH  052%=      5-min Rain = 0
KPFS 081545Z 21008KT 14/04 A2987 RMK A01 T01370036  RH  052%=      5-min Rain = 0
KPFS 081550Z 21008KT 14/04 A2987 RMK A01 T01400037  RH  051%=      5-min Rain = 0
KPFS 081555Z 21008KT 14/04 A2987 RMK A01 T01430038  RH  050%=      5-min Rain = 0
KPFS 081600Z 21007KT 14/04 A2987 RMK A01 T01440038  RH  050%=      5-min Rain = 0
KPFS 081605Z 21007KT 15/04 A2987 RMK A01 T01490040  RH  049%=      5-min Rain = 0
KPFS 081610Z 21008KT 15/04 A2987 RMK A01 T01510039  RH  048%=      5-min Rain = 0
KPFS 081615Z 23008KT 15/04 A2987 RMK A01 T01520039  RH  048%=      5-min Rain = 0
KPFS 081620Z 22007KT 16/04 A2987 RMK A01 T01580042  RH  047%=      5-min Rain = 0
KPFS 081625Z 23007KT 16/04 A2987 RMK A01 T01590040  RH  046%=      5-min Rain = 0
KPFS 081630Z 22008KT 16/04 A2987 RMK A01 T01600039  RH  045%=      5-min Rain = 0
KPFS 081635Z 22009KT 16/04 A2987 RMK A01 T01620040  RH  045%=      5-min Rain = 0
KPFS 081640Z 22008KT 17/04 A2986 RMK A01 T01650040  RH  044%=      5-min Rain = 0
KPFS 081645Z 22008G13KT 17/04 A2986 RMK A01 T01660040  RH  044%=      5-min Rain = 0
KPFS 081650Z 22009G14KT 16/04 A2985 RMK A01 T01640039  RH  044%=      5-min Rain = 0
KPFS 081655Z 22008KT 16/04 A2985 RMK A01 T01640039  RH  044%=      5-min Rain = 0
KPFS 081700Z 22008KT 16/04 A2985 RMK A01 T01640040  RH  044%=      5-min Rain = 0
KPFS 081705Z 23008KT 17/04 A2985 RMK A01 T01660041  RH  044%=      5-min Rain = 0
KPFS 081710Z 24008KT 17/04 A2985 RMK A01 T01690041  RH  044%=      5-min Rain = 0
KPFS 081715Z 23009KT 17/04 A2985 RMK A01 T01710041  RH  043%=      5-min Rain = 0
KPFS 081720Z 23010KT 17/04 A2985 RMK A01 T01720041  RH  043%=      5-min Rain = 0
KPFS 081725Z 23010KT 17/04 A2984 RMK A01 T01740042  RH  042%=      5-min Rain = 0
KPFS 081730Z 23011KT 18/04 A2984 RMK A01 T01750042  RH  042%=      5-min Rain = 0
KPFS 081735Z 23010KT 18/04 A2983 RMK A01 T01750042  RH  042%=      5-min Rain = 0
KPFS 081740Z 23010G15KT 17/04 A2983 RMK A01 T01740042  RH  042%=      5-min Rain = 0
KPFS 081745Z 23011KT 17/04 A2983 RMK A01 T01740042  RH  042%=      5-min Rain = 0
KPFS 081750Z 23011KT 18/04 A2983 RMK A01 T01760043  RH  042%=      5-min Rain = 0
KPFS 081755Z 23012G17KT 18/04 A2983 RMK A01 T01790043  RH  041%=      5-min Rain = 0
KPFS 081800Z 22010G15KT 18/04 A2982 RMK A01 T01800044  RH  041%=      5-min Rain = 0
KPFS 081805Z 22012KT 18/04 A2982 RMK A01 T01830044  RH  041%=      5-min Rain = 0
KPFS 081810Z 22010G15KT 19/05 A2981 RMK A01 T01870046  RH  040%=      5-min Rain = 0
KPFS 081815Z 22012KT 19/05 A2981 RMK A01 T01920045  RH  039%=      5-min Rain = 0
KPFS 081820Z 23012G17KT 20/05 A2981 RMK A01 T01970046  RH  038%=      5-min Rain = 0
KPFS 081825Z 24012G17KT 20/05 A2981 RMK A01 T02000046  RH  037%=      5-min Rain = 0
KPFS 081830Z 24013G18KT 20/05 A298 RMK A01 T02020045  RH  036%=      5-min Rain = 0
KPFS 081835Z 24011KT 21/05 A298 RMK A01 T02060047  RH  036%=      5-min Rain = 0
KPFS 081840Z 23013G18KT 21/05 A2979 RMK A01 T02140047  RH  034%=      5-min Rain = 0
KPFS 081845Z 24014G19KT 21/05 A2979 RMK A01 T02130045  RH  034%=      5-min Rain = 0
KPFS 081850Z 24014KT 22/05 A2979 RMK A01 T02150045  RH  034%=      5-min Rain = 0
KPFS 081855Z 24013G18KT 22/05 A2979 RMK A01 T02180046  RH  033%=      5-min Rain = 0
KPFS 081900Z 24011KT 22/05 A2979 RMK A01 T02220046  RH  032%=      5-min Rain = 0
KPFS 081905Z 24011KT 23/05 A2978 RMK A01 T02260047  RH  032%=      5-min Rain = 0
KPFS 081910Z 25014G21KT 23/04 A2978 RMK A01 T02300044  RH  030%=      5-min Rain = 0
KPFS 081915Z 24016G21KT 23/04 A2978 RMK A01 T02260037  RH  030%=      5-min Rain = 0
KPFS 081920Z 24014G20KT 23/04 A2978 RMK A01 T02270039  RH  030%=      5-min Rain = 0
KPFS 081925Z 24016G24KT 23/04 A2977 RMK A01 T02280038  RH  029%=      5-min Rain = 0
KPFS 081930Z 24015G23KT 23/04 A2977 RMK A01 T02280037  RH  029%=      5-min Rain = 0
KPFS 081935Z 23013KT 23/04 A2977 RMK A01 T02290038  RH  029%=      5-min Rain = 0
KPFS 081940Z 23015G21KT 23/04 A2977 RMK A01 T02270037  RH  029%=      5-min Rain = 0
KPFS 081945Z 23015G22KT 23/04 A2977 RMK A01 T02270037  RH  029%=      5-min Rain = 0
KPFS 081950Z 24015KT 23/04 A2976 RMK A01 T02280037  RH  029%=      5-min Rain = 0
KPFS 081955Z 24016G22KT 23/04 A2976 RMK A01 T02280037  RH  029%=      5-min Rain = 0
KPFS 082000Z 23014G19KT 23/04 A2976 RMK A01 T02290038  RH  029%=      5-min Rain = 0
KPFS 082005Z 23016G21KT 23/04 A2975 RMK A01 T02290037  RH  029%=      5-min Rain = 0
KPFS 082010Z 22015KT 23/04 A2975 RMK A01 T02300038  RH  029%=      5-min Rain = 0
KPFS 082015Z 22015KT 23/04 A2974 RMK A01 T02320038  RH  029%=      5-min Rain = 0
KPFS 082020Z 23014G20KT 23/04 A2974 RMK A01 T02340039  RH  029%=      5-min Rain = 0
KPFS 082025Z 22014G19KT 24/04 A2974 RMK A01 T02350038  RH  028%=      5-min Rain = 0
KPFS 082030Z 22016G21KT 24/04 A2975 RMK A01 T02350037  RH  028%=      5-min Rain = 0
KPFS 082035Z 23016G21KT 23/04 A2975 RMK A01 T02340038  RH  028%=      5-min Rain = 0
KPFS 082040Z 22014KT 24/04 A2974 RMK A01 T02370039  RH  028%=      5-min Rain = 0
KPFS 082045Z 21014G20KT 24/04 A2974 RMK A01 T02420039  RH  027%=      5-min Rain = 0
KPFS 082050Z 22017G22KT 24/04 A2974 RMK A01 T02420038  RH  027%=      5-min Rain = 0
KPFS 082055Z 22016KT 24/04 A2974 RMK A01 T02360038  RH  028%=      5-min Rain = 0
KPFS 082100Z 22015KT 24/04 A2974 RMK A01 T02360039  RH  028%=      5-min Rain = 0
KPFS 082105Z 21015G21KT 24/04 A2973 RMK A01 T02370039  RH  028%=      5-min Rain = 0
KPFS 082110Z 21011G16KT 24/04 A2974 RMK A01 T02410041  RH  028%=      5-min Rain = 0
KPFS 082115Z 22015G20KT 24/04 A2973 RMK A01 T02430042  RH  028%=      5-min Rain = 0
KPFS 082120Z 22015G20KT 24/04 A2973 RMK A01 T02440042  RH  027%=      5-min Rain = 0
KPFS 082125Z 22015G21KT 25/04 A2973 RMK A01 T02470043  RH  027%=      5-min Rain = 0
KPFS 082130Z 23014KT 25/04 A2973 RMK A01 T02480044  RH  027%=      5-min Rain = 0
KPFS 082135Z 23014KT 25/04 A2973 RMK A01 T02490043  RH  027%=      5-min Rain = 0
KPFS 082140Z 22014KT 25/04 A2972 RMK A01 T02460042  RH  027%=      5-min Rain = 0
KPFS 082145Z 23013G20KT 25/04 A2972 RMK A01 T02470041  RH  027%=      5-min Rain = 0
KPFS 082150Z 24016G21KT 25/04 A2972 RMK A01 T02490036  RH  026%=      5-min Rain = 0
KPFS 082155Z 24017G22KT 25/03 A2972 RMK A01 T02490034  RH  025%=      5-min Rain = 0
KPFS 082200Z 23018G26KT 25/03 A2972 RMK A01 T02480033  RH  025%=      5-min Rain = 0
KPFS 082205Z 23016G21KT 25/03 A2972 RMK A01 T02460034  RH  026%=      5-min Rain = 0
KPFS 082210Z 23016G22KT 24/03 A2972 RMK A01 T02440034  RH  026%=      5-min Rain = 0
KPFS 082215Z 23015KT 24/04 A2972 RMK A01 T02420035  RH  027%=      5-min Rain = 0
KPFS 082220Z 23015G22KT 24/04 A2972 RMK A01 T02400036  RH  027%=      5-min Rain = 0
KPFS 082225Z 23014KT 24/04 A2972 RMK A01 T02380037  RH  027%=      5-min Rain = 0
KPFS 082230Z 22013KT 24/04 A2972 RMK A01 T02350038  RH  028%=      5-min Rain = 0
KPFS 082235Z 21012KT 23/04 A2972 RMK A01 T02300040  RH  029%=      5-min Rain = 0
KPFS 082240Z 21013KT 23/04 A2972 RMK A01 T02280040  RH  030%=      5-min Rain = 0
KPFS 082245Z 21011KT 23/04 A2972 RMK A01 T02260040  RH  030%=      5-min Rain = 0
KPFS 082250Z 21012G17KT 22/04 A2972 RMK A01 T02240040  RH  031%=      5-min Rain = 0
KPFS 082255Z 21012KT 22/04 A2972 RMK A01 T02210040  RH  031%=      5-min Rain = 0
KPFS 082300Z 21012KT 22/04 A2972 RMK A01 T02190041  RH  032%=      5-min Rain = 0
KPFS 082305Z 21012G17KT 22/04 A2972 RMK A01 T02170041  RH  032%=      5-min Rain = 0
KPFS 082310Z 21013KT 22/04 A2972 RMK A01 T02160040  RH  032%=      5-min Rain = 0
KPFS 082315Z 21012KT 21/04 A2973 RMK A01 T02140040  RH  033%=      5-min Rain = 0
KPFS 082320Z 21012KT 21/04 A2973 RMK A01 T02120041  RH  033%=      5-min Rain = 0
KPFS 082325Z 22011KT 21/04 A2974 RMK A01 T02080041  RH  034%=      5-min Rain = 0
KPFS 082330Z 22009KT 20/04 A2974 RMK A01 T02030041  RH  035%=      5-min Rain = 0
KPFS 082335Z 22009KT 20/04 A2974 RMK A01 T02000042  RH  036%=      5-min Rain = 0
KPFS 082340Z 22009KT 20/04 A2974 RMK A01 T01980042  RH  036%=      5-min Rain = 0
KPFS 082345Z 22008KT 20/04 A2974 RMK A01 T01960042  RH  037%=      5-min Rain = 0
KPFS 082350Z 21008KT 19/04 A2974 RMK A01 T01940042  RH  037%=      5-min Rain = 0
KPFS 082355Z 22009KT 19/04 A2973 RMK A01 T01940043  RH  038%=      5-min Rain = 0
KPFS 090000Z 22009KT 19/04 A2974 RMK A01 T01930043  RH  038%=      5-min Rain = 0
KPFS 090005Z 22009KT 19/04 A2974 RMK A01 T01910043  RH  038%=      5-min Rain = 0
KPFS 090010Z 22010KT 19/04 A2974 RMK A01 T01900044  RH  039%=      5-min Rain = 0
KPFS 090015Z 22010KT 19/04 A2974 RMK A01 T01900044  RH  039%=      5-min Rain = 0
KPFS 090020Z 22011KT 19/05 A2973 RMK A01 T01910045  RH  039%=      5-min Rain = 0
KPFS 090025Z 22011KT 19/05 A2974 RMK A01 T01920045  RH  039%=      5-min Rain = 0
KPFS 090030Z 22010KT 19/05 A2974 RMK A01 T01910045  RH  039%=      5-min Rain = 0
KPFS 090035Z 22011KT 19/05 A2974 RMK A01 T01890045  RH  039%=      5-min Rain = 0
KPFS 090040Z 22010KT 19/05 A2974 RMK A01 T01870045  RH  040%=      5-min Rain = 0
KPFS 090045Z 22010KT 18/05 A2974 RMK A01 T01840045  RH  041%=      5-min Rain = 0
KPFS 090050Z 22010KT 18/05 A2974 RMK A01 T01810046  RH  042%=      5-min Rain = 0
KPFS 090055Z 22010KT 18/05 A2975 RMK A01 T01800046  RH  042%=      5-min Rain = 0
KPFS 090100Z 22010KT 18/05 A2974 RMK A01 T01790046  RH  042%=      5-min Rain = 0
KPFS 090105Z 23010KT 18/05 A2975 RMK A01 T01790047  RH  042%=      5-min Rain = 0
KPFS 090110Z 23009KT 18/05 A2975 RMK A01 T01800047  RH  042%=      5-min Rain = 0
KPFS 090115Z 24009KT 18/05 A2975 RMK A01 T01790047  RH  042%=      5-min Rain = 0
KPFS 090120Z 23010KT 18/05 A2974 RMK A01 T01770047  RH  043%=      5-min Rain = 0
KPFS 090125Z 22008KT 17/05 A2974 RMK A01 T01710047  RH  045%=      5-min Rain = 0
KPFS 090130Z 22008KT 17/05 A2974 RMK A01 T01670047  RH  046%=      5-min Rain = 0
KPFS 090135Z 22009KT 17/05 A2974 RMK A01 T01670048  RH  046%=      5-min Rain = 0
KPFS 090140Z 22010KT 17/05 A2974 RMK A01 T01660048  RH  047%=      5-min Rain = 0
KPFS 090145Z 22009KT 17/05 A2974 RMK A01 T01650048  RH  047%=      5-min Rain = 0
KPFS 090150Z 22010KT 16/05 A2974 RMK A01 T01630048  RH  047%=      5-min Rain = 0
KPFS 090155Z 22009KT 16/05 A2975 RMK A01 T01610049  RH  048%=      5-min Rain = 0
KPFS 090200Z 23008KT 16/05 A2975 RMK A01 T01600049  RH  049%=      5-min Rain = 0
KPFS 090205Z 23007KT 16/05 A2975 RMK A01 T01560048  RH  050%=      5-min Rain = 0
KPFS 090210Z 24007KT 16/05 A2975 RMK A01 T01560049  RH  050%=      5-min Rain = 0
KPFS 090215Z 25008KT 16/05 A2975 RMK A01 T01570049  RH  050%=      5-min Rain = 0
KPFS 090220Z 24009KT 16/05 A2976 RMK A01 T01590049  RH  049%=      5-min Rain = 0
KPFS 090225Z 24009KT 16/05 A2976 RMK A01 T01600049  RH  049%=      5-min Rain = 0
KPFS 090230Z 24009KT 16/05 A2975 RMK A01 T01600049  RH  049%=      5-min Rain = 0
KPFS 090235Z 23008KT 16/05 A2975 RMK A01 T01570049  RH  049%=      5-min Rain = 0
KPFS 090240Z 23007KT 15/05 A2975 RMK A01 T01500048  RH  052%=      5-min Rain = 0
KPFS 090245Z 23007KT 15/05 A2975 RMK A01 T01470049  RH  053%=      5-min Rain = 0
KPFS 090250Z 24009KT 15/05 A2976 RMK A01 T01460049  RH  053%=      5-min Rain = 0
KPFS 090255Z 24010KT 15/05 A2976 RMK A01 T01510050  RH  052%=      5-min Rain = 0
KPFS 090300Z 24010KT 16/05 A2976 RMK A01 T01550050  RH  051%=      5-min Rain = 0
KPFS 090305Z 24011KT 16/05 A2975 RMK A01 T01600049  RH  049%=      5-min Rain = 0
KPFS 090310Z 24010KT 16/05 A2975 RMK A01 T01630048  RH  047%=      5-min Rain = 0
KPFS 090315Z 24010KT 16/05 A2975 RMK A01 T01610048  RH  048%=      5-min Rain = 0
KPFS 090320Z 25011G16KT 16/05 A2975 RMK A01 T01630048  RH  047%=      5-min Rain = 0
KPFS 090325Z 25012KT 17/05 A2976 RMK A01 T01670047  RH  046%=      5-min Rain = 0
KPFS 090330Z 26013KT 17/05 A2975 RMK A01 T01710046  RH  045%=      5-min Rain = 0
KPFS 090335Z 26013KT 17/05 A2975 RMK A01 T01710046  RH  044%=      5-min Rain = 0
KPFS 090340Z 25012KT 17/05 A2974 RMK A01 T01690046  RH  045%=      5-min Rain = 0
KPFS 090345Z 25012KT 17/05 A2975 RMK A01 T01680046  RH  045%=      5-min Rain = 0
KPFS 090350Z 25012KT 17/05 A2975 RMK A01 T01650046  RH  046%=      5-min Rain = 0
KPFS 090355Z 25012KT 16/05 A2975 RMK A01 T01630047  RH  047%=      5-min Rain = 0
KPFS 090400Z 25012KT 16/05 A2975 RMK A01 T01620047  RH  047%=      5-min Rain = 0
KPFS 090405Z 25012KT 16/05 A2975 RMK A01 T01610047  RH  048%=      5-min Rain = 0
KPFS 090410Z 24011KT 16/05 A2975 RMK A01 T01590047  RH  049%=      5-min Rain = 0
KPFS 090415Z 24010KT 16/05 A2975 RMK A01 T01560048  RH  050%=      5-min Rain = 0
KPFS 090420Z 24010KT 15/05 A2975 RMK A01 T01540048  RH  050%=      5-min Rain = 0
KPFS 090425Z 24010KT 15/05 A2975 RMK A01 T01530048  RH  051%=      5-min Rain = 0
KPFS 090430Z 24010KT 15/05 A2975 RMK A01 T01530048  RH  050%=      5-min Rain = 0
KPFS 090435Z 24010KT 16/05 A2975 RMK A01 T01560047  RH  049%=      5-min Rain = 0
KPFS 090440Z 25010KT 16/05 A2975 RMK A01 T01600046  RH  048%=      5-min Rain = 0
KPFS 090445Z 25012KT 17/04 A2975 RMK A01 T01650043  RH  045%=      5-min Rain = 0
KPFS 090450Z 25013G18KT 17/04 A2975 RMK A01 T01700040  RH  043%=      5-min Rain = 0
KPFS 090455Z 25012KT 17/04 A2975 RMK A01 T01680039  RH  043%=      5-min Rain = 0
KPFS 090500Z 25012KT 17/04 A2975 RMK A01 T01660040  RH  044%=      5-min Rain = 0
KPFS 090505Z 25013G19KT 17/04 A2975 RMK A01 T01670039  RH  043%=      5-min Rain = 0
KPFS 090510Z 26013KT 17/04 A2975 RMK A01 T01680038  RH  043%=      5-min Rain = 0
KPFS 090515Z 26014KT 17/04 A2976 RMK A01 T01680039  RH  043%=      5-min Rain = 0
KPFS 090520Z 26014G19KT 17/04 A2976 RMK A01 T01680039  RH  043%=      5-min Rain = 0
KPFS 090525Z 25013G19KT 17/04 A2976 RMK A01 T01660039  RH  044%=      5-min Rain = 0
KPFS 090530Z 25013KT 17/04 A2976 RMK A01 T01660039  RH  044%=      5-min Rain = 0
KPFS 090535Z 25012KT 16/04 A2976 RMK A01 T01640039  RH  044%=      5-min Rain = 0
KPFS 090540Z 25011KT 16/04 A2976 RMK A01 T01610039  RH  045%=      5-min Rain = 0
KPFS 090545Z 25011KT 16/04 A2976 RMK A01 T01600039  RH  045%=      5-min Rain = 0
KPFS 090550Z 25012KT 16/04 A2976 RMK A01 T01600039  RH  045%=      5-min Rain = 0
KPFS 090555Z 26012KT 16/04 A2976 RMK A01 T01610039  RH  045%=      5-min Rain = 0

Page generated in 0.009 seconds.